createdAt,value
2022-12-14T00:01:22.506Z,20.27
2022-12-14T00:03:50.392Z,19.57
2022-12-14T00:06:22.902Z,20.30
2022-12-14T00:08:51.515Z,22.37
2022-12-14T00:11:24.966Z,24.27
2022-12-14T00:13:57.556Z,23.77
2022-12-14T00:16:26.166Z,23.33
2022-12-14T00:18:55.659Z,23.70
2022-12-14T00:21:23.087Z,19.73
2022-12-14T00:23:51.149Z,22.80
2022-12-14T00:26:20.066Z,19.00
2022-12-14T00:28:49.471Z,22.90
2022-12-14T00:31:16.722Z,21.03
2022-12-14T00:33:44.297Z,25.40
2022-12-14T00:36:12.363Z,20.17
2022-12-14T00:38:40.003Z,23.43
2022-12-14T00:41:07.645Z,25.87
2022-12-14T00:43:34.776Z,25.47
2022-12-14T00:46:04.324Z,20.03
2022-12-14T00:48:31.951Z,22.13
2022-12-14T00:50:59.099Z,22.87
2022-12-14T00:53:26.096Z,23.17
2022-12-14T00:55:53.182Z,19.13
2022-12-14T00:58:21.732Z,23.43
2022-12-14T01:01:05.417Z,20.83
2022-12-14T01:03:33.475Z,22.83
2022-12-14T01:06:00.740Z,20.87
2022-12-14T01:08:35.114Z,23.70
2022-12-14T01:11:06.539Z,23.60
2022-12-14T01:13:33.736Z,22.33
2022-12-14T01:16:05.617Z,21.43
2022-12-14T01:18:36.952Z,20.73
2022-12-14T01:21:16.040Z,20.43
2022-12-14T01:23:44.220Z,21.53
2022-12-14T01:26:15.695Z,21.20
2022-12-14T01:28:42.467Z,21.27
2022-12-14T01:31:15.653Z,19.50
2022-12-14T01:33:42.821Z,19.67
2022-12-14T01:36:12.290Z,20.07
2022-12-14T01:38:38.999Z,24.17
2022-12-14T01:41:06.742Z,22.50
2022-12-14T01:43:51.559Z,19.70
2022-12-14T01:46:43.970Z,22.60
2022-12-14T01:49:13.612Z,24.13
2022-12-14T01:51:45.210Z,20.43
2022-12-14T01:54:15.100Z,22.80
2022-12-14T01:56:44.736Z,21.57
2022-12-14T01:59:19.070Z,18.90
2022-12-14T02:01:48.235Z,20.43
2022-12-14T02:04:17.294Z,19.20
2022-12-14T02:06:45.649Z,20.50
2022-12-14T02:09:18.175Z,23.33
2022-12-14T02:11:49.324Z,22.67
2022-12-14T02:14:16.080Z,22.80
2022-12-14T02:16:42.891Z,22.47
2022-12-14T02:19:09.571Z,21.73
2022-12-14T02:22:08.141Z,20.40
2022-12-14T02:25:09.867Z,20.23
2022-12-14T02:28:10.301Z,22.57
2022-12-14T02:30:42.037Z,22.53
2022-12-14T02:33:27.067Z,22.67
2022-12-14T02:36:10.919Z,21.67
2022-12-14T02:38:46.241Z,19.65
2022-12-14T02:41:29.574Z,23.30
2022-12-14T02:44:23.969Z,19.37
2022-12-14T02:50:10.019Z,21.37
2022-12-14T02:52:51.100Z,16.47
2022-12-14T02:55:31.899Z,21.40
2022-12-14T02:58:05.632Z,16.83
2022-12-14T03:00:35.239Z,19.65
2022-12-14T03:03:04.501Z,17.10
2022-12-14T03:05:31.644Z,20.63
2022-12-14T03:08:02.458Z,19.87
2022-12-14T03:10:50.587Z,22.07
2022-12-14T03:13:32.924Z,20.17
2022-12-14T03:16:19.677Z,20.40
2022-12-14T03:18:54.987Z,20.90
2022-12-14T03:21:28.011Z,19.30
2022-12-14T03:23:56.755Z,22.50
2022-12-14T03:26:33.282Z,20.63
2022-12-14T03:29:17.948Z,20.80
2022-12-14T03:31:56.217Z,23.13
2022-12-14T03:34:31.517Z,20.33
2022-12-14T03:37:12.656Z,19.13
2022-12-14T03:39:42.205Z,20.77
2022-12-14T03:42:44.041Z,18.67
2022-12-14T03:45:23.901Z,20.90
2022-12-14T03:47:56.355Z,21.63
2022-12-14T03:50:25.215Z,18.57
2022-12-14T03:52:54.695Z,18.10
2022-12-14T03:55:31.973Z,20.07
2022-12-14T03:58:24.509Z,18.67
2022-12-14T04:01:18.596Z,20.43
2022-12-14T04:03:57.248Z,23.08
2022-12-14T04:06:28.187Z,19.17
2022-12-14T04:09:06.855Z,19.00
2022-12-14T04:12:05.967Z,19.83
2022-12-14T04:14:55.476Z,20.70
2022-12-14T04:17:52.941Z,18.47
2022-12-14T04:20:26.164Z,19.67
2022-12-14T04:23:13.921Z,19.35
2022-12-14T04:26:05.040Z,21.03
2022-12-14T04:28:57.804Z,18.10
2022-12-14T04:31:28.795Z,21.43
2022-12-14T04:33:57.889Z,18.40
2022-12-14T04:36:30.946Z,18.77
2022-12-14T04:39:04.403Z,17.85
2022-12-14T04:41:36.459Z,19.92
2022-12-14T04:44:19.496Z,20.13
2022-12-14T04:46:47.604Z,21.20
2022-12-14T04:49:28.988Z,21.27
2022-12-14T04:52:05.584Z,21.17
2022-12-14T04:54:53.539Z,18.27
2022-12-14T04:57:29.841Z,17.57
2022-12-14T04:59:57.064Z,20.23
2022-12-14T05:02:35.388Z,20.43
2022-12-14T05:05:32.127Z,19.60
2022-12-14T05:08:23.316Z,18.43
2022-12-14T05:11:51.892Z,23.00
2022-12-14T05:14:16.453Z,17.93
2022-12-14T05:16:43.503Z,19.93
2022-12-14T05:19:15.867Z,17.97
2022-12-14T05:21:48.441Z,22.87
2022-12-14T05:24:16.922Z,17.50
2022-12-14T05:26:44.459Z,19.37
2022-12-14T05:29:11.280Z,21.40
2022-12-14T05:31:38.532Z,21.73
2022-12-14T05:34:05.211Z,20.73
2022-12-14T05:36:32.012Z,21.60
2022-12-14T05:38:58.850Z,20.00
2022-12-14T05:41:25.562Z,22.47
2022-12-14T05:43:52.383Z,24.77
2022-12-14T05:46:19.127Z,22.97
2022-12-14T05:48:49.194Z,21.53
2022-12-14T05:51:16.792Z,22.47
2022-12-14T05:53:43.986Z,19.63
2022-12-14T05:56:11.879Z,19.67
2022-12-14T05:58:39.371Z,23.83
2022-12-14T06:01:11.649Z,22.60
2022-12-14T06:03:42.367Z,22.20
2022-12-14T06:06:11.214Z,22.60
2022-12-14T06:08:41.866Z,22.47
2022-12-14T06:11:11.250Z,18.47
2022-12-14T06:13:39.204Z,22.27
2022-12-14T06:16:09.301Z,30.40
2022-12-14T06:18:36.403Z,32.50
2022-12-14T06:21:03.696Z,26.00
2022-12-14T06:23:30.727Z,30.30
2022-12-14T06:25:57.682Z,27.23
2022-12-14T06:28:24.475Z,21.77
2022-12-14T06:30:51.131Z,24.90
2022-12-14T06:33:17.920Z,31.03
2022-12-14T06:35:47.663Z,23.77
2022-12-14T06:38:14.968Z,21.20
2022-12-14T06:40:41.791Z,29.27
2022-12-14T06:43:09.135Z,24.03
2022-12-14T06:45:35.821Z,25.43
2022-12-14T06:48:02.735Z,27.17
2022-12-14T06:50:29.410Z,19.37
2022-12-14T06:52:56.272Z,21.27
2022-12-14T06:55:26.578Z,24.87
2022-12-14T06:57:54.366Z,21.20
2022-12-14T07:00:22.721Z,25.57
2022-12-14T07:02:50.130Z,27.47
2022-12-14T07:05:16.958Z,26.67
2022-12-14T07:07:43.805Z,24.43
2022-12-14T07:10:11.440Z,25.30
2022-12-14T07:12:38.596Z,23.43
2022-12-14T07:15:05.740Z,23.50
2022-12-14T07:17:34.785Z,22.90
2022-12-14T07:20:01.452Z,22.90
2022-12-14T07:22:28.181Z,26.60
2022-12-14T07:24:54.908Z,22.03
2022-12-14T07:27:21.647Z,24.50
2022-12-14T07:29:48.371Z,25.47
2022-12-14T07:32:15.008Z,31.93
2022-12-14T07:34:41.721Z,32.93
2022-12-14T07:37:08.428Z,28.83
2022-12-14T07:39:35.153Z,29.30
2022-12-14T07:42:01.938Z,28.20
2022-12-14T07:44:28.696Z,30.50
2022-12-14T07:46:55.425Z,27.47
2022-12-14T07:49:22.304Z,26.77
2022-12-14T07:51:48.982Z,29.47
2022-12-14T07:54:15.756Z,27.83
2022-12-14T07:56:43.638Z,24.57
2022-12-14T07:59:15.261Z,26.33
2022-12-14T08:01:43.569Z,27.47
2022-12-14T08:04:13.508Z,23.97
2022-12-14T08:06:40.701Z,26.03
2022-12-14T08:09:09.945Z,27.70
2022-12-14T08:11:37.341Z,24.27
2022-12-14T08:14:07.067Z,23.07
2022-12-14T08:16:34.294Z,26.57
2022-12-14T08:19:01.632Z,24.73
2022-12-14T08:21:29.284Z,25.93
2022-12-14T08:23:57.463Z,28.53
2022-12-14T08:26:30.067Z,27.97
2022-12-14T08:29:01.842Z,23.40
2022-12-14T08:31:29.009Z,30.53
2022-12-14T08:33:57.904Z,25.90
2022-12-14T08:36:30.333Z,25.70
2022-12-14T08:38:59.458Z,26.47
2022-12-14T08:41:27.655Z,25.67
2022-12-14T08:43:57.125Z,27.13
2022-12-14T08:46:25.491Z,24.17
2022-12-14T08:48:53.479Z,27.17
2022-12-14T08:51:21.494Z,22.07
2022-12-14T08:53:48.206Z,26.03
2022-12-14T08:56:18.368Z,24.00
2022-12-14T08:58:45.824Z,25.83
2022-12-14T09:01:15.935Z,24.27
2022-12-14T09:03:47.372Z,23.73
2022-12-14T09:06:20.621Z,23.77
2022-12-14T09:08:49.734Z,20.73
2022-12-14T09:11:18.997Z,25.77
2022-12-14T09:13:46.627Z,25.80
2022-12-14T09:16:17.396Z,24.83
2022-12-14T09:18:45.079Z,27.40
2022-12-14T09:21:12.234Z,26.60
2022-12-14T09:23:39.915Z,23.37
2022-12-14T09:26:10.444Z,26.17
2022-12-14T09:28:38.945Z,24.37
2022-12-14T09:31:08.178Z,24.43
2022-12-14T09:33:35.247Z,23.23
2022-12-14T09:36:12.273Z,25.10
2022-12-14T09:38:40.736Z,25.87
2022-12-14T09:41:18.403Z,28.47
2022-12-14T09:44:18.508Z,26.93
2022-12-14T09:47:06.571Z,26.43
2022-12-14T09:49:41.116Z,26.53
2022-12-14T09:52:15.735Z,28.30
2022-12-14T09:54:44.400Z,23.57
2022-12-14T09:57:18.427Z,27.57
2022-12-14T09:59:45.279Z,29.17
2022-12-14T10:02:37.817Z,27.50
2022-12-14T10:05:46.512Z,27.03
2022-12-14T10:08:19.179Z,30.60
2022-12-14T10:11:04.565Z,29.83
2022-12-14T10:14:22.866Z,27.90
2022-12-14T10:17:19.750Z,27.07
2022-12-14T10:20:00.247Z,27.20
2022-12-14T10:22:35.678Z,30.77
2022-12-14T10:25:14.607Z,29.47
2022-12-14T10:28:09.982Z,29.80
2022-12-14T10:30:32.909Z,27.33
2022-12-14T10:33:14.735Z,26.33
2022-12-14T10:35:52.049Z,27.73
2022-12-14T10:38:41.392Z,29.63
2022-12-14T10:41:32.447Z,35.20
2022-12-14T10:44:16.764Z,27.17
2022-12-14T10:49:15.657Z,28.20
2022-12-14T10:52:02.233Z,28.57
2022-12-14T10:54:31.929Z,28.97
2022-12-14T10:56:58.678Z,26.50
2022-12-14T10:59:32.329Z,29.73
2022-12-14T11:02:08.863Z,30.60
2022-12-14T11:04:55.418Z,28.60
2022-12-14T11:07:37.596Z,26.80
2022-12-14T11:10:21.275Z,28.70
2022-12-14T11:13:13.853Z,28.65
2022-12-14T11:15:46.965Z,28.50
2022-12-14T11:18:16.448Z,26.40
2022-12-14T11:21:05.102Z,27.30
2022-12-14T11:23:41.415Z,26.40
2022-12-14T11:26:16.208Z,28.93
2022-12-14T11:28:53.319Z,25.83
2022-12-14T11:31:40.088Z,30.57
2022-12-14T11:34:39.335Z,30.40
2022-12-14T11:37:21.693Z,32.13
2022-12-14T11:39:54.116Z,31.73
2022-12-14T11:42:21.892Z,26.20
2022-12-14T11:44:51.302Z,28.63
2022-12-14T11:47:21.036Z,24.57
2022-12-14T11:49:55.390Z,27.37
2022-12-14T11:52:25.275Z,29.07
2022-12-14T11:54:55.211Z,27.57
2022-12-14T11:57:26.798Z,25.60
2022-12-14T11:59:55.174Z,30.20
2022-12-14T12:02:30.121Z,27.73
2022-12-14T12:05:12.494Z,29.10
2022-12-14T12:07:43.425Z,30.30
2022-12-14T12:10:12.763Z,34.97
2022-12-14T12:12:55.694Z,33.22
2022-12-14T12:15:33.002Z,27.60
2022-12-14T12:18:15.474Z,32.80
2022-12-14T12:21:12.738Z,31.20
2022-12-14T12:23:53.096Z,30.25
2022-12-14T12:26:22.345Z,34.95
2022-12-14T12:28:58.472Z,29.92
2022-12-14T12:31:32.671Z,30.95
2022-12-14T12:34:03.580Z,32.42
2022-12-14T12:36:32.745Z,29.40
2022-12-14T12:39:24.106Z,29.42
2022-12-14T12:42:30.396Z,29.17
2022-12-14T12:45:05.375Z,32.23
2022-12-14T12:48:08.919Z,34.23
2022-12-14T12:50:40.572Z,31.53
2022-12-14T12:53:21.050Z,44.60
2022-12-14T12:55:52.316Z,38.07
2022-12-14T12:58:29.349Z,33.97
2022-12-14T13:01:00.770Z,30.73
2022-12-14T13:03:37.094Z,33.03
2022-12-14T13:06:32.145Z,31.67
2022-12-14T13:09:06.447Z,32.53
2022-12-14T13:11:38.465Z,33.97
2022-12-14T13:14:30.500Z,37.07
2022-12-14T13:16:59.630Z,36.87
2022-12-14T13:19:49.731Z,37.90
2022-12-14T13:22:16.992Z,40.43
2022-12-14T13:24:47.645Z,39.37
2022-12-14T13:27:42.100Z,36.20
2022-12-14T13:30:21.576Z,37.95
2022-12-14T13:33:28.726Z,33.73
2022-12-14T13:36:16.534Z,73.73
2022-12-14T13:38:49.093Z,117.97
2022-12-14T13:41:24.574Z,95.83
2022-12-14T13:44:09.329Z,56.63
2022-12-14T13:46:36.886Z,47.77
2022-12-14T13:49:08.170Z,40.40
2022-12-14T13:51:38.961Z,37.27
2022-12-14T13:54:27.765Z,38.50
2022-12-14T13:57:05.660Z,36.40
2022-12-14T13:59:36.573Z,35.47
2022-12-14T14:02:04.937Z,39.77
2022-12-14T14:04:34.020Z,37.30
2022-12-14T14:07:25.102Z,36.10
2022-12-14T14:10:04.271Z,35.57
2022-12-14T14:12:40.306Z,60.40
2022-12-14T14:15:26.122Z,127.67
2022-12-14T14:17:54.236Z,60.63
2022-12-14T14:20:39.104Z,37.80
2022-12-14T14:23:15.389Z,36.47
2022-12-14T14:26:10.118Z,38.13
2022-12-14T14:28:38.160Z,34.70
2022-12-14T14:31:05.765Z,38.83
2022-12-14T14:33:45.324Z,38.37
2022-12-14T14:36:33.761Z,37.67
2022-12-14T14:39:38.407Z,34.13
2022-12-14T14:41:55.560Z,38.00
2022-12-14T14:44:35.271Z,35.63
2022-12-14T14:47:07.345Z,35.63
2022-12-14T14:49:39.151Z,40.83
2022-12-14T14:52:40.123Z,39.20
2022-12-14T14:55:51.996Z,35.53
2022-12-14T14:58:30.491Z,39.90
2022-12-14T15:01:07.432Z,43.73
2022-12-14T15:04:19.989Z,42.00
2022-12-14T15:06:54.152Z,42.97
2022-12-14T15:09:31.374Z,43.27
2022-12-14T15:12:32.899Z,42.97
2022-12-14T15:15:07.147Z,42.77
2022-12-14T15:17:34.017Z,44.20
2022-12-14T15:20:02.434Z,43.87
2022-12-14T15:22:35.209Z,42.67
2022-12-14T15:25:02.691Z,43.60
2022-12-14T15:27:40.477Z,46.30
2022-12-14T15:30:12.727Z,42.83
2022-12-14T15:32:47.266Z,41.40
2022-12-14T15:35:18.967Z,43.13
2022-12-14T15:37:58.058Z,42.97
2022-12-14T15:40:30.197Z,42.80
2022-12-14T15:43:00.116Z,45.00
2022-12-14T15:45:34.336Z,41.13
2022-12-14T15:48:26.241Z,36.60
2022-12-14T15:50:55.634Z,41.97
2022-12-14T15:53:29.253Z,44.10
2022-12-14T15:56:01.195Z,42.05
2022-12-14T15:58:34.411Z,38.87
2022-12-14T16:01:10.816Z,42.47
2022-12-14T16:03:44.756Z,46.37
2022-12-14T16:06:13.307Z,42.47
2022-12-14T16:08:55.128Z,41.07
2022-12-14T16:11:43.561Z,41.63
2022-12-14T16:14:45.225Z,46.27
2022-12-14T16:17:14.211Z,38.83
2022-12-14T16:19:58.665Z,45.83
2022-12-14T16:22:32.191Z,44.10
2022-12-14T16:25:01.910Z,44.00
2022-12-14T16:27:30.625Z,47.40
2022-12-14T16:30:21.711Z,49.13
2022-12-14T16:33:04.399Z,54.53
2022-12-14T16:35:34.189Z,52.77
2022-12-14T16:38:08.359Z,94.47
2022-12-14T16:40:38.729Z,55.53
2022-12-14T16:43:07.252Z,50.90
2022-12-14T16:45:42.984Z,46.57
2022-12-14T16:48:18.159Z,55.80
2022-12-14T16:51:07.901Z,52.00
2022-12-14T16:53:32.125Z,55.57
2022-12-14T16:56:13.789Z,47.17
2022-12-14T16:58:40.613Z,45.60
2022-12-14T17:01:09.342Z,48.90
2022-12-14T17:03:37.779Z,56.60
2022-12-14T17:06:06.810Z,49.07
2022-12-14T17:08:34.447Z,48.50
2022-12-14T17:11:02.161Z,45.93
2022-12-14T17:13:29.432Z,54.20
2022-12-14T17:16:02.686Z,54.03
2022-12-14T17:18:41.018Z,53.83
2022-12-14T17:21:24.664Z,52.87
2022-12-14T17:23:52.085Z,51.15
2022-12-14T17:26:26.335Z,52.07
2022-12-14T17:28:53.699Z,53.30
2022-12-14T17:31:24.995Z,52.53
2022-12-14T17:33:53.301Z,78.90
2022-12-14T17:36:20.031Z,64.33
2022-12-14T17:38:46.979Z,59.80
2022-12-14T17:41:20.619Z,59.57
2022-12-14T17:43:51.083Z,66.60
2022-12-14T17:46:23.462Z,54.33
2022-12-14T17:48:50.264Z,51.63
2022-12-14T17:51:28.754Z,51.67
2022-12-14T17:53:57.481Z,79.23
2022-12-14T17:56:24.899Z,69.33
2022-12-14T17:58:51.589Z,61.27
2022-12-14T18:01:22.289Z,56.40
2022-12-14T18:03:50.775Z,50.53
2022-12-14T18:06:18.253Z,56.43
2022-12-14T18:08:45.813Z,54.37
2022-12-14T18:11:16.032Z,52.53
2022-12-14T18:13:43.438Z,51.50
2022-12-14T18:16:15.772Z,60.63
2022-12-14T18:18:43.106Z,61.90
2022-12-14T18:21:25.036Z,65.60
2022-12-14T18:23:52.732Z,63.63
2022-12-14T18:26:21.108Z,54.20
2022-12-14T18:28:49.787Z,54.53
2022-12-14T18:31:31.020Z,49.30
2022-12-14T18:33:57.711Z,56.77
2022-12-14T18:36:25.931Z,54.40
2022-12-14T18:38:53.381Z,51.97
2022-12-14T18:41:22.854Z,55.77
2022-12-14T18:43:49.996Z,55.70
2022-12-14T18:46:17.122Z,57.20
2022-12-14T18:48:45.007Z,56.87
2022-12-14T18:51:16.936Z,56.40
2022-12-14T18:53:43.653Z,58.37
2022-12-14T18:56:11.796Z,54.57
2022-12-14T18:58:41.885Z,57.30
2022-12-14T19:01:14.784Z,57.27
2022-12-14T19:03:42.653Z,57.05
2022-12-14T19:06:43.129Z,53.23
2022-12-14T19:08:59.872Z,60.03
2022-12-14T19:11:31.645Z,56.00
2022-12-14T19:13:58.702Z,61.60
2022-12-14T19:16:25.661Z,51.47
2022-12-14T19:18:52.560Z,46.67
2022-12-14T19:21:19.868Z,57.77
2022-12-14T19:23:46.633Z,57.13
2022-12-14T19:26:13.362Z,50.00
2022-12-14T19:28:40.075Z,55.27
2022-12-14T19:31:10.256Z,52.80
2022-12-14T19:33:37.331Z,53.40
2022-12-14T19:36:08.122Z,57.47
2022-12-14T19:38:36.257Z,50.80
2022-12-14T19:41:08.804Z,51.83
2022-12-14T19:43:35.909Z,55.87
2022-12-14T19:46:11.032Z,55.47
2022-12-14T19:48:38.127Z,59.30
2022-12-14T19:51:11.236Z,55.77
2022-12-14T19:53:40.356Z,56.15
2022-12-14T19:56:07.358Z,65.70
2022-12-14T19:58:35.315Z,71.90
2022-12-14T20:01:07.510Z,109.23
2022-12-14T20:03:34.697Z,93.10
2022-12-14T20:06:01.990Z,81.13
2022-12-14T20:08:30.177Z,72.47
2022-12-14T20:10:57.508Z,77.80
2022-12-14T20:13:25.962Z,107.90
2022-12-14T20:15:55.627Z,97.77
2022-12-14T20:18:22.848Z,86.30
2022-12-14T20:20:50.810Z,81.63
2022-12-14T20:23:20.364Z,83.13
2022-12-14T20:25:48.082Z,85.87
2022-12-14T20:28:15.045Z,80.13
2022-12-14T20:30:47.077Z,75.77
2022-12-14T20:33:14.348Z,68.53
2022-12-14T20:35:41.097Z,74.67
2022-12-14T20:38:07.895Z,73.47
2022-12-14T20:40:38.387Z,72.37
2022-12-14T20:43:06.441Z,67.30
2022-12-14T20:45:41.140Z,61.20
2022-12-14T20:48:08.965Z,64.00
2022-12-14T20:50:37.510Z,58.80
2022-12-14T20:53:04.853Z,61.27
2022-12-14T20:55:31.846Z,63.30
2022-12-14T20:57:58.540Z,58.70
2022-12-14T21:00:25.335Z,58.17
2022-12-14T21:02:52.428Z,62.73
2022-12-14T21:05:19.252Z,60.27
2022-12-14T21:07:45.945Z,63.97
2022-12-14T21:10:12.582Z,60.63
2022-12-14T21:12:39.271Z,58.03
2022-12-14T21:15:06.364Z,56.57
2022-12-14T21:17:33.648Z,57.00
2022-12-14T21:20:00.696Z,57.23
2022-12-14T21:22:30.139Z,60.63
2022-12-14T21:25:05.995Z,62.10
2022-12-14T21:27:35.124Z,57.80
2022-12-14T21:30:01.852Z,59.77
2022-12-14T21:32:28.930Z,53.07
2022-12-14T21:34:55.708Z,57.87
2022-12-14T21:37:22.861Z,53.70
2022-12-14T21:39:54.209Z,59.00
2022-12-14T21:42:23.617Z,53.57
2022-12-14T21:44:51.595Z,54.03
2022-12-14T21:47:24.666Z,51.07
2022-12-14T21:49:51.871Z,56.90
2022-12-14T21:52:21.513Z,59.23
2022-12-14T21:54:48.309Z,58.37
2022-12-14T21:57:39.724Z,55.27
2022-12-14T22:00:08.191Z,55.03
2022-12-14T22:02:35.145Z,59.67
2022-12-14T22:05:02.144Z,53.20
2022-12-14T22:07:34.033Z,55.17
2022-12-14T22:10:01.283Z,68.47
2022-12-14T22:12:28.109Z,57.57
2022-12-14T22:14:55.067Z,58.73
2022-12-14T22:17:21.740Z,56.93
2022-12-14T22:19:50.777Z,58.80
2022-12-14T22:22:17.625Z,70.87
2022-12-14T22:24:47.791Z,64.87
2022-12-14T22:27:14.857Z,64.23
2022-12-14T22:29:41.689Z,67.07
2022-12-14T22:32:10.988Z,57.80
2022-12-14T22:34:37.697Z,60.50
2022-12-14T22:37:04.402Z,56.93
2022-12-14T22:39:31.109Z,56.20
2022-12-14T22:41:57.768Z,59.97
2022-12-14T22:44:24.409Z,60.43
2022-12-14T22:46:51.191Z,60.67
2022-12-14T22:49:19.273Z,60.27
2022-12-14T22:51:46.579Z,53.13
2022-12-14T22:54:27.401Z,62.57
2022-12-14T22:57:02.380Z,57.07
2022-12-14T22:59:49.648Z,53.50
2022-12-14T23:02:16.637Z,57.97
2022-12-14T23:04:43.483Z,55.70
2022-12-14T23:07:10.325Z,56.23
2022-12-14T23:09:56.024Z,58.50
2022-12-14T23:12:41.478Z,59.73
2022-12-14T23:15:27.002Z,63.17
2022-12-14T23:18:23.218Z,66.13
2022-12-14T23:21:08.724Z,61.33
2022-12-14T23:23:57.305Z,57.70
2022-12-14T23:26:42.689Z,56.90
2022-12-14T23:29:28.357Z,60.90
2022-12-14T23:32:14.371Z,52.57
2022-12-14T23:34:59.846Z,55.53
2022-12-14T23:37:45.486Z,58.53
2022-12-14T23:40:30.804Z,55.13
2022-12-14T23:43:16.305Z,57.20
2022-12-14T23:46:02.235Z,72.03
2022-12-14T23:48:47.499Z,65.03
2022-12-14T23:51:33.052Z,62.67
2022-12-14T23:54:18.362Z,66.57
2022-12-14T23:57:03.823Z,78.17
2022-12-14T23:59:49.523Z,67.20
